Apex, NC

7:59 PM EDT on March 31, 2015 (GMT -0400)
Surrey Meadows | | Change Station
CLOSE
Current Station
Personal Weather Station
Location: APEX, NC
Elevation: 476 ft
Nearby Weather Stations

Elev 476 ft 35.73 °N, 78.83 °W | Updated 8 minutes ago

Clear
Clear
68.7 °F
Feels Like 68.7 °F
N
1.7
Wind Variable Wind from SW

Today
High -- | Low -- °F
--% Chance of Precip.
Yesterday
High -- | Low -- °F
Precip. -- in
7:03 AM 7:35 PM
Waxing Gibbous, 89% visible
Pressure 29.75 in
Visibility 10.0 miles
Clouds Few 8000 ft
Scattered Clouds 25000 ft
Dew Point 37 °F
Humidity 31%
Rainfall 0.00 in
Snow Depth Not available.
UV 0 out of 12
Pollen 10.30 out of 12
Air Quality Not available.
Flu Activity Not available.
METAR KRDU 312351Z 24012KT 10SM FEW080 SCT250 20/01 A2975 RMK AO2 SLP074 T02000006 10233 20194 55001

More Conditions Fewer Conditions

Pressure 29.75 in
Visibility 10.0 miles
Clouds Few 8000 ft
Scattered Clouds 25000 ft
Dew Point 37 °F
Humidity 31%
Rainfall 0.00 in
Snow Depth Not available.
UV 0 out of 12
Pollen 10.30 out of 12
Air Quality Not available.
Flu Activity Not available.
METAR KRDU 312351Z 24012KT 10SM FEW080 SCT250 20/01 A2975 RMK AO2 SLP074 T02000006 10233 20194 55001

More Conditions Fewer Conditions

10-Day Weather Forecast

Almanac

Astronomy

Mar. 31, 2015 Rise Set
Actual Time
Civil Twilight
Nautical Twilight
Astronomical Twilight
Moon
Length of Visible Light
Length of Day
Tomorrow will be .
, % of the Moon is Illuminated

Today's Extremes

State Highs State Lows

Community

WunderPhotos

Upload Photos

1,809,877 photos uploaded!

WunderBlogs® & News

Nearby

Air Quality

  Air Quality AQ Index Pollutant
Not available.

Snow Depth

Station Depth Elevation

Earthquake Activity

City Distance Mag. Time & Date
Minimum magnitude displayed is 2.5.

Coastal Water Temperatures

Place Temperature

Stations

Nearby Weather Stations

Station Location Temp. Windchill Dew Point Humidity Wind Precip. Elev Updated Type